Time;durP1;ratioP1;P1;durP2;ratioP2;P2;SDS_P1;SDS_P2;PMS_P1;PMS_P2;Temp;Humidity;BMP_temperature;BMP_pressure;BME280_temperature;BME280_humidity;BME280_pressure;Samples;Min_cycle;Max_cycle;Signal;HPM_P1;HPM_P2
2023/12/23 00:01:28;;;;;;;0.35;0.35;;;;;;;6.33;100.00;98665.41;5087198;28;20036;-60
2023/12/23 00:03:56;;;;;;;0.47;0.47;;;;;;;6.33;100.00;98660.09;5099087;28;20130;-58
2023/12/23 00:06:23;;;;;;;0.40;0.40;;;;;;;6.34;100.00;98671.53;5074527;28;20052;-60
2023/12/23 00:08:49;;;;;;;0.30;0.30;;;;;;;6.38;100.00;98678.03;5092803;28;20086;-60
2023/12/23 00:11:17;;;;;;;0.40;0.40;;;;;;;6.37;100.00;98679.91;5093602;28;22013;-59
2023/12/23 00:13:45;;;;;;;0.40;0.40;;;;;;;6.40;100.00;98683.94;5095738;28;20051;-59
2023/12/23 00:16:13;;;;;;;0.40;0.40;;;;;;;6.53;100.00;98698.91;5095773;28;20143;-59
2023/12/23 00:18:40;;;;;;;0.40;0.40;;;;;;;6.57;100.00;98698.22;5092422;28;20294;-59
2023/12/23 00:21:08;;;;;;;0.40;0.40;;;;;;;6.54;100.00;98687.19;5090739;28;20951;-59
2023/12/23 00:23:34;;;;;;;0.30;0.30;;;;;;;6.55;100.00;98684.31;5094289;28;20093;-59
2023/12/23 00:26:02;;;;;;;0.30;0.30;;;;;;;6.52;100.00;98694.63;5094666;28;20454;-59
2023/12/23 00:28:29;;;;;;;0.30;0.30;;;;;;;6.48;100.00;98694.25;5094679;28;20691;-59
2023/12/23 00:30:57;;;;;;;0.30;0.30;;;;;;;6.58;100.00;98704.34;5089463;28;20040;-59
2023/12/23 00:33:27;;;;;;;0.28;0.28;;;;;;;6.55;100.00;98715.47;5075690;28;20847;-59
2023/12/23 00:35:56;;;;;;;0.30;0.30;;;;;;;6.70;100.00;98719.31;5093908;28;20035;-59
2023/12/23 00:38:23;;;;;;;0.30;0.30;;;;;;;6.58;100.00;98723.78;5093612;28;20047;-59
2023/12/23 00:40:50;;;;;;;0.30;0.30;;;;;;;6.59;100.00;98708.63;5073185;28;20488;-59
2023/12/23 00:43:17;;;;;;;0.30;0.30;;;;;;;6.71;100.00;98725.44;5094030;28;20465;-59
2023/12/23 00:45:44;;;;;;;0.30;0.30;;;;;;;6.59;100.00;98716.59;5085896;28;20047;-59
2023/12/23 00:48:11;;;;;;;0.38;0.38;;;;;;;6.35;100.00;98721.88;5093494;28;20047;-59
2023/12/23 00:50:40;;;;;;;0.30;0.30;;;;;;;6.65;100.00;98727.16;5085209;28;20142;-60
2023/12/23 00:53:07;;;;;;;0.30;0.30;;;;;;;6.65;100.00;98721.03;5098627;28;20044;-59
2023/12/23 00:55:34;;;;;;;0.40;0.40;;;;;;;6.70;100.00;98735.28;5090588;28;20148;-59
2023/12/23 00:58:02;;;;;;;0.30;0.30;;;;;;;6.67;100.00;98725.09;5077783;28;20048;-59
2023/12/23 01:00:29;;;;;;;0.30;0.30;;;;;;;6.51;100.00;98731.06;5074035;28;20044;-59
2023/12/23 01:02:56;;;;;;;0.40;0.40;;;;;;;6.45;100.00;98724.81;5080496;28;20471;-59
2023/12/23 01:05:23;;;;;;;0.30;0.30;;;;;;;6.43;100.00;98728.75;5091293;28;20557;-59
2023/12/23 01:07:52;;;;;;;0.30;0.30;;;;;;;6.39;100.00;98730.22;5070778;28;20320;-59
2023/12/23 01:10:22;;;;;;;0.30;0.30;;;;;;;6.32;100.00;98721.53;5096358;28;20490;-59
2023/12/23 01:12:48;;;;;;;0.30;0.30;;;;;;;6.22;100.00;98732.75;5090754;28;20080;-59
2023/12/23 01:15:15;;;;;;;0.40;0.40;;;;;;;6.14;100.00;98747.16;5093913;28;20166;-59
2023/12/23 01:17:42;;;;;;;0.30;0.30;;;;;;;6.22;100.00;98754.84;5073034;28;20295;-59
2023/12/23 01:20:10;;;;;;;0.40;0.40;;;;;;;6.23;100.00;98745.78;5090354;28;20120;-59
2023/12/23 01:22:37;;;;;;;0.40;0.40;;;;;;;6.10;100.00;98740.66;5071912;28;20055;-59
2023/12/23 01:25:06;;;;;;;0.28;0.28;;;;;;;6.00;100.00;98754.50;5070897;28;20194;-59
2023/12/23 01:27:33;;;;;;;0.40;0.40;;;;;;;5.86;100.00;98754.84;5071818;28;20079;-59
2023/12/23 01:30:02;;;;;;;0.40;0.40;;;;;;;5.95;100.00;98748.25;5087247;28;20040;-59
2023/12/23 01:32:30;;;;;;;0.45;0.45;;;;;;;5.83;100.00;98746.28;5094901;28;20040;-59
2023/12/23 01:34:57;;;;;;;0.35;0.35;;;;;;;5.94;100.00;98763.38;5096537;28;20047;-59
2023/12/23 01:37:24;;;;;;;0.32;0.32;;;;;;;5.87;100.00;98745.84;5077940;28;20498;-59
2023/12/23 01:39:51;;;;;;;0.40;0.40;;;;;;;5.81;100.00;98745.69;5090379;28;20870;-59
2023/12/23 01:42:19;;;;;;;0.50;0.50;;;;;;;5.89;100.00;98744.59;5084342;28;20093;-59
2023/12/23 01:44:46;;;;;;;0.30;0.30;;;;;;;5.89;100.00;98738.44;5092834;28;20395;-59
2023/12/23 01:47:13;;;;;;;0.30;0.30;;;;;;;5.86;100.00;98739.69;5081869;28;20051;-59
2023/12/23 01:49:42;;;;;;;0.32;0.32;;;;;;;5.96;100.00;98732.03;5070919;28;20139;-59
2023/12/23 01:52:09;;;;;;;0.40;0.40;;;;;;;5.92;100.00;98732.69;5076389;28;20048;-59
2023/12/23 01:54:36;;;;;;;0.30;0.30;;;;;;;5.93;100.00;98729.00;5099575;28;20039;-59
2023/12/23 01:57:03;;;;;;;0.30;0.30;;;;;;;5.92;100.00;98722.06;5094550;28;20142;-59
2023/12/23 01:59:31;;;;;;;0.32;0.32;;;;;;;5.97;100.00;98720.38;5077552;28;20049;-59
2023/12/23 02:01:58;;;;;;;0.40;0.40;;;;;;;5.91;100.00;98715.09;5079480;28;20137;-59
2023/12/23 02:04:25;;;;;;;0.35;0.35;;;;;;;5.96;100.00;98720.59;5094987;28;20047;-59
2023/12/23 02:06:52;;;;;;;0.40;0.40;;;;;;;5.98;100.00;98721.19;5090441;28;20685;-59
2023/12/23 02:09:19;;;;;;;0.30;0.30;;;;;;;5.95;100.00;98732.28;5100463;28;20160;-59
2023/12/23 02:11:50;;;;;;;0.40;0.40;;;;;;;5.95;100.00;98732.28;5076973;28;20040;-59
2023/12/23 02:14:21;;;;;;;0.30;0.30;;;;;;;5.97;100.00;98730.22;5097535;28;20055;-59
2023/12/23 02:16:50;;;;;;;0.30;0.30;;;;;;;5.93;100.00;98729.00;5099123;28;20054;-59
2023/12/23 02:19:17;;;;;;;0.40;0.40;;;;;;;6.08;100.00;98718.78;5095091;28;20130;-59
2023/12/23 02:21:45;;;;;;;0.32;0.32;;;;;;;6.36;100.00;98717.38;5096413;28;20090;-59
2023/12/23 02:24:13;;;;;;;0.30;0.30;;;;;;;6.51;100.00;98709.75;5093414;28;20592;-59
2023/12/23 02:26:40;;;;;;;0.30;0.30;;;;;;;6.63;100.00;98710.59;5094061;28;20040;-59
2023/12/23 02:29:07;;;;;;;0.40;0.40;;;;;;;6.89;100.00;98713.91;5093268;28;20031;-59
2023/12/23 02:31:35;;;;;;;0.30;0.30;;;;;;;6.94;100.00;98711.34;5091863;28;20050;-59
2023/12/23 02:34:02;;;;;;;0.30;0.30;;;;;;;7.10;100.00;98712.50;5092116;28;20051;-59
2023/12/23 02:36:29;;;;;;;0.30;0.30;;;;;;;7.12;100.00;98710.41;5089594;28;20043;-59
2023/12/23 02:38:57;;;;;;;0.30;0.30;;;;;;;7.12;100.00;98713.09;5097387;28;20566;-59
2023/12/23 02:41:25;;;;;;;0.30;0.30;;;;;;;6.96;100.00;98709.25;5099062;28;20568;-59
2023/12/23 02:43:52;;;;;;;0.30;0.30;;;;;;;6.94;100.00;98713.19;5066785;28;20051;-59
2023/12/23 02:46:21;;;;;;;0.30;0.30;;;;;;;6.93;100.00;98707.03;5094870;28;20059;-59
2023/12/23 02:48:48;;;;;;;0.30;0.30;;;;;;;7.02;100.00;98689.69;5073542;28;20580;-59
2023/12/23 02:51:16;;;;;;;0.30;0.30;;;;;;;7.19;100.00;98694.28;5097610;28;20043;-59
2023/12/23 02:53:43;;;;;;;0.30;0.30;;;;;;;7.12;100.00;98695.22;5075963;28;20047;-59
2023/12/23 02:56:11;;;;;;;0.30;0.30;;;;;;;7.16;100.00;98700.91;5098458;28;20047;-59
2023/12/23 02:58:38;;;;;;;0.20;0.20;;;;;;;7.14;100.00;98692.34;5079552;28;20126;-59
2023/12/23 03:01:07;;;;;;;0.38;0.38;;;;;;;7.23;100.00;98690.13;5097898;28;20130;-61
2023/12/23 03:03:34;;;;;;;0.30;0.30;;;;;;;7.22;100.00;98693.84;5094118;28;20288;-59
2023/12/23 03:06:03;;;;;;;0.30;0.30;;;;;;;7.23;100.00;98690.13;5097582;28;20132;-59
2023/12/23 03:08:30;;;;;;;0.20;0.20;;;;;;;7.19;100.00;98672.97;5096615;28;20132;-59
2023/12/23 03:10:58;;;;;;;0.25;0.25;;;;;;;7.24;100.00;98676.56;5079521;28;20087;-59
2023/12/23 03:13:26;;;;;;;0.30;0.30;;;;;;;7.22;100.00;98677.84;5074634;28;20126;-59
2023/12/23 03:15:54;;;;;;;0.38;0.38;;;;;;;7.22;100.00;98672.53;5096845;28;20035;-59
2023/12/23 03:18:22;;;;;;;0.32;0.32;;;;;;;7.32;100.00;98676.19;5095463;28;20380;-59
2023/12/23 03:20:50;;;;;;;0.40;0.40;;;;;;;7.21;100.00;98677.00;5096474;28;20044;-59
2023/12/23 03:23:17;;;;;;;0.30;0.30;;;;;;;7.26;100.00;98661.16;5079571;28;20075;-59
2023/12/23 03:25:44;;;;;;;0.30;0.30;;;;;;;7.39;100.00;98656.59;5075641;28;20048;-60
2023/12/23 03:28:11;;;;;;;0.20;0.20;;;;;;;7.38;100.00;98663.78;5074867;28;20036;-59
2023/12/23 03:30:40;;;;;;;0.20;0.20;;;;;;;7.38;100.00;98671.78;5092948;28;20048;-60
2023/12/23 03:33:07;;;;;;;0.40;0.40;;;;;;;7.37;100.00;98680.84;5076878;28;20050;-59
2023/12/23 03:35:37;;;;;;;0.20;0.20;;;;;;;7.45;100.00;98669.78;5093197;28;20048;-59
2023/12/23 03:38:04;;;;;;;0.27;0.27;;;;;;;7.33;100.00;98669.81;5078547;28;20120;-59
2023/12/23 03:40:31;;;;;;;0.30;0.30;;;;;;;7.35;100.00;98657.06;5096874;28;20048;-59
2023/12/23 03:42:58;;;;;;;0.30;0.30;;;;;;;7.48;100.00;98655.19;5071172;28;20426;-59
2023/12/23 03:45:25;;;;;;;0.20;0.20;;;;;;;7.42;100.00;98653.47;5095930;28;20075;-59
2023/12/23 03:47:53;;;;;;;0.30;0.30;;;;;;;7.43;100.00;98650.56;5096887;28;20126;-59
2023/12/23 03:50:20;;;;;;;0.35;0.35;;;;;;;7.48;100.00;98647.19;5090702;28;20079;-59
2023/12/23 03:52:47;;;;;;;0.30;0.30;;;;;;;7.56;100.00;98642.31;5061827;28;20047;-59
2023/12/23 03:55:15;;;;;;;0.30;0.30;;;;;;;7.55;100.00;98637.19;5073669;28;20040;-59
2023/12/23 03:57:43;;;;;;;0.30;0.30;;;;;;;7.55;100.00;98630.00;5069202;28;20136;-59
2023/12/23 04:00:12;;;;;;;0.30;0.30;;;;;;;7.56;100.00;98628.97;5073773;28;20040;-59
2023/12/23 04:02:42;;;;;;;0.30;0.30;;;;;;;7.57;100.00;98633.25;5093853;28;20214;-59
2023/12/23 04:05:10;;;;;;;0.40;0.40;;;;;;;7.61;100.00;98638.09;5095926;28;20128;-60
2023/12/23 04:07:37;;;;;;;0.30;0.30;;;;;;;7.64;100.00;98638.44;5072868;28;20055;-59
2023/12/23 04:10:05;;;;;;;0.30;0.30;;;;;;;7.65;100.00;98640.06;5097872;28;20152;-59
2023/12/23 04:12:32;;;;;;;0.30;0.30;;;;;;;7.57;100.00;98633.25;5073861;28;20062;-59
2023/12/23 04:14:59;;;;;;;0.40;0.40;;;;;;;7.59;100.00;98634.84;5095496;28;20055;-59
2023/12/23 04:17:26;;;;;;;0.30;0.30;;;;;;;7.51;100.00;98628.88;5075314;28;20036;-59
2023/12/23 04:19:53;;;;;;;0.30;0.30;;;;;;;7.51;100.00;98631.53;5091478;28;20044;-59
2023/12/23 04:22:22;;;;;;;0.40;0.40;;;;;;;7.53;100.00;98637.41;5078142;28;20036;-59
2023/12/23 04:24:49;;;;;;;0.35;0.35;;;;;;;7.55;100.00;98624.66;5073898;28;20121;-59
2023/12/23 04:27:16;;;;;;;0.30;0.30;;;;;;;7.46;100.00;98626.09;5069487;28;20551;-60
2023/12/23 04:29:44;;;;;;;0.40;0.40;;;;;;;7.49;100.00;98636.28;5097215;28;20149;-59
2023/12/23 04:32:11;;;;;;;0.30;0.30;;;;;;;7.40;100.00;98629.69;5074207;28;20493;-59
2023/12/23 04:34:38;;;;;;;0.30;0.30;;;;;;;7.42;100.00;98627.63;5075392;28;20076;-59
2023/12/23 04:37:05;;;;;;;0.40;0.40;;;;;;;7.40;100.00;98621.69;5073516;28;20075;-58
2023/12/23 04:39:33;;;;;;;0.30;0.30;;;;;;;7.60;100.00;98620.47;5094262;28;20554;-59
2023/12/23 04:42:02;;;;;;;0.25;0.25;;;;;;;7.54;100.00;98619.59;5080792;28;20120;-59
2023/12/23 04:44:30;;;;;;;0.30;0.30;;;;;;;7.54;100.00;98619.59;5075248;28;20553;-59
2023/12/23 04:46:57;;;;;;;0.30;0.30;;;;;;;7.50;100.00;98616.56;5077210;28;20509;-59
2023/12/23 04:49:24;;;;;;;0.20;0.20;;;;;;;7.54;100.00;98604.38;5063414;28;20600;-59
2023/12/23 04:51:53;;;;;;;0.35;0.35;;;;;;;7.55;100.00;98608.66;5090188;28;20051;-59
2023/12/23 04:54:20;;;;;;;0.30;0.30;;;;;;;7.61;100.00;98601.56;5079281;28;20051;-59
2023/12/23 04:56:48;;;;;;;0.30;0.30;;;;;;;7.56;100.00;98610.31;5091412;28;20204;-58
2023/12/23 04:59:15;;;;;;;0.30;0.30;;;;;;;7.73;100.00;98615.66;5091628;28;20060;-59
2023/12/23 05:01:42;;;;;;;0.30;0.30;;;;;;;7.56;100.00;98602.31;5085104;28;20032;-59
2023/12/23 05:04:10;;;;;;;0.38;0.38;;;;;;;7.65;100.00;98607.25;5077204;28;20139;-59
2023/12/23 05:06:38;;;;;;;0.30;0.30;;;;;;;7.68;100.00;98596.91;5087558;28;20055;-59
2023/12/23 05:09:06;;;;;;;0.30;0.30;;;;;;;7.64;100.00;98605.59;5089007;28;20520;-59
2023/12/23 05:11:33;;;;;;;0.30;0.30;;;;;;;7.73;100.00;98606.84;5055627;28;20178;-59
2023/12/23 05:14:02;;;;;;;0.30;0.30;;;;;;;7.74;100.00;98609.28;5076979;28;20164;-59
2023/12/23 05:16:29;;;;;;;0.30;0.30;;;;;;;7.77;100.00;98605.34;5095290;28;20490;-59
2023/12/23 05:18:56;;;;;;;0.28;0.28;;;;;;;7.78;100.00;98601.59;5091877;28;20056;-59
2023/12/23 05:21:23;;;;;;;0.40;0.40;;;;;;;7.83;100.00;98588.34;5096539;28;20063;-59
2023/12/23 05:23:50;;;;;;;0.30;0.30;;;;;;;7.75;100.00;98588.75;5065071;28;20104;-59
2023/12/23 05:26:18;;;;;;;0.25;0.25;;;;;;;7.75;100.00;98576.22;5094912;28;20143;-59
2023/12/23 05:28:46;;;;;;;0.20;0.20;;;;;;;7.74;100.00;98568.47;5071212;28;20139;-59
2023/12/23 05:31:14;;;;;;;0.30;0.30;;;;;;;7.83;100.00;98569.69;5089819;28;20044;-59
2023/12/23 05:33:42;;;;;;;0.20;0.20;;;;;;;7.77;100.00;98563.47;5094016;28;20130;-59
2023/12/23 05:36:09;;;;;;;0.30;0.30;;;;;;;7.83;100.00;98564.34;5090949;28;20088;-59
2023/12/23 05:38:36;;;;;;;0.20;0.20;;;;;;;7.84;100.00;98565.16;5094991;28;20097;-59
2023/12/23 05:41:03;;;;;;;0.30;0.30;;;;;;;7.86;100.00;98566.56;5087838;28;20050;-58
2023/12/23 05:43:33;;;;;;;0.30;0.30;;;;;;;7.98;100.00;98572.59;5094608;28;20395;-59
2023/12/23 05:46:00;;;;;;;0.32;0.32;;;;;;;7.92;100.00;98570.13;5074914;28;20486;-59
2023/12/23 05:48:28;;;;;;;0.30;0.30;;;;;;;7.91;100.00;98573.81;5090301;28;20062;-58
2023/12/23 05:50:55;;;;;;;0.20;0.20;;;;;;;7.91;100.00;98563.97;5091425;28;20036;-59
2023/12/23 05:53:22;;;;;;;0.30;0.30;;;;;;;8.08;100.00;98579.19;5093493;28;20055;-59
2023/12/23 05:55:49;;;;;;;0.30;0.30;;;;;;;8.07;100.00;98589.03;5095723;28;20361;-59
2023/12/23 05:58:17;;;;;;;0.30;0.30;;;;;;;8.05;100.00;98579.66;5094900;28;20071;-58
2023/12/23 06:00:44;;;;;;;0.20;0.20;;;;;;;7.97;100.00;98573.66;5096906;28;20054;-59
2023/12/23 06:03:11;;;;;;;0.30;0.30;;;;;;;8.02;100.00;98572.94;5094092;28;20444;-59
2023/12/23 06:05:40;;;;;;;0.25;0.25;;;;;;;7.94;100.00;98568.81;5097603;28;20128;-59
2023/12/23 06:08:07;;;;;;;0.28;0.28;;;;;;;8.08;100.00;98560.50;5093933;28;20401;-59
2023/12/23 06:10:34;;;;;;;0.30;0.30;;;;;;;8.01;100.00;98563.31;5088720;28;20048;-59
2023/12/23 06:13:05;;;;;;;0.20;0.20;;;;;;;8.06;100.00;98571.41;5084420;28;20153;-58
2023/12/23 06:15:32;;;;;;;0.30;0.30;;;;;;;8.04;100.00;98567.34;5084063;28;20208;-59
2023/12/23 06:17:59;;;;;;;0.30;0.30;;;;;;;8.02;100.00;98574.81;5090442;28;20518;-59
2023/12/23 06:20:26;;;;;;;0.20;0.20;;;;;;;8.06;100.00;98571.41;5093215;28;20274;-58
2023/12/23 06:22:54;;;;;;;0.20;0.20;;;;;;;8.04;100.00;98568.19;5091086;28;20483;-58
2023/12/23 06:25:21;;;;;;;0.20;0.20;;;;;;;8.11;100.00;98565.34;5095265;28;20612;-59
2023/12/23 06:27:49;;;;;;;0.20;0.20;;;;;;;8.17;100.00;98572.41;5094765;28;20120;-59
2023/12/23 06:30:17;;;;;;;0.20;0.20;;;;;;;8.06;100.00;98562.59;5097336;28;20516;-59
2023/12/23 06:32:44;;;;;;;0.20;0.20;;;;;;;8.08;100.00;98569.31;5095548;28;20397;-58
2023/12/23 06:35:12;;;;;;;0.30;0.30;;;;;;;8.09;100.00;98570.13;5090394;28;20043;-59
2023/12/23 06:37:39;;;;;;;0.25;0.25;;;;;;;8.00;100.00;98567.84;5096736;28;20043;-58
2023/12/23 06:40:09;;;;;;;0.30;0.30;;;;;;;8.06;100.00;98583.94;5100524;28;20452;-58
2023/12/23 06:42:36;;;;;;;0.40;0.40;;;;;;;8.04;100.00;98580.69;5096194;28;20043;-58
2023/12/23 06:45:03;;;;;;;0.30;0.30;;;;;;;8.14;100.00;98578.22;5095570;28;20138;-58
2023/12/23 06:47:32;;;;;;;0.25;0.25;;;;;;;8.12;100.00;98591.00;5098948;28;20046;-58
2023/12/23 06:49:59;;;;;;;0.20;0.20;;;;;;;8.10;100.00;98585.09;5090552;28;20036;-58
2023/12/23 06:52:26;;;;;;;0.30;0.30;;;;;;;8.11;100.00;98579.53;5094378;28;20046;-59
2023/12/23 06:54:53;;;;;;;0.30;0.30;;;;;;;8.18;100.00;98574.00;5091340;28;20036;-59
2023/12/23 06:57:21;;;;;;;0.20;0.20;;;;;;;8.10;100.00;98582.41;5092960;28;20462;-58
2023/12/23 06:59:49;;;;;;;0.30;0.30;;;;;;;8.04;100.00;98583.38;5095107;28;20047;-59
2023/12/23 07:02:16;;;;;;;0.20;0.20;;;;;;;8.03;100.00;98589.75;5077644;28;20044;-59
2023/12/23 07:04:44;;;;;;;0.20;0.20;;;;;;;8.16;100.00;98579.59;5088906;28;20071;-58
2023/12/23 07:07:11;;;;;;;0.30;0.30;;;;;;;8.02;100.00;98570.28;5075159;28;20051;-58
2023/12/23 07:09:38;;;;;;;0.30;0.30;;;;;;;8.14;100.00;98583.56;5100614;28;20400;-58
2023/12/23 07:12:06;;;;;;;0.30;0.30;;;;;;;8.13;100.00;98581.94;5098320;28;20040;-58
2023/12/23 07:14:34;;;;;;;0.30;0.30;;;;;;;8.09;100.00;98572.81;5094095;28;20062;-58
2023/12/23 07:17:01;;;;;;;0.30;0.30;;;;;;;8.12;100.00;98574.97;5090775;28;20120;-59
2023/12/23 07:19:28;;;;;;;0.30;0.30;;;;;;;8.11;100.00;98589.34;5095568;28;20456;-58
2023/12/23 07:21:55;;;;;;;0.30;0.30;;;;;;;8.06;100.00;98587.41;5096674;28;20044;-58
2023/12/23 07:24:22;;;;;;;0.20;0.20;;;;;;;8.02;100.00;98580.16;5074450;28;20051;-59
2023/12/23 07:26:49;;;;;;;0.30;0.30;;;;;;;8.06;100.00;98583.94;5089111;28;20450;-58
2023/12/23 07:29:17;;;;;;;0.30;0.30;;;;;;;7.98;100.00;98588.63;5093176;28;20040;-58
2023/12/23 07:31:45;;;;;;;0.30;0.30;;;;;;;7.95;100.00;98586.44;5094944;28;20055;-58
2023/12/23 07:34:12;;;;;;;0.30;0.30;;;;;;;8.11;100.00;98592.03;5093345;28;20559;-59
2023/12/23 07:36:39;;;;;;;0.22;0.22;;;;;;;8.00;100.00;98599.06;5091635;28;20140;-58
2023/12/23 07:39:06;;;;;;;0.20;0.20;;;;;;;8.08;100.00;98597.84;5093025;28;20093;-59
2023/12/23 07:41:33;;;;;;;0.30;0.30;;;;;;;7.99;100.00;98606.28;5095297;28;20036;-59
2023/12/23 07:44:00;;;;;;;0.30;0.30;;;;;;;7.98;100.00;98604.63;5098392;28;20047;-59
2023/12/23 07:46:28;;;;;;;0.20;0.20;;;;;;;8.14;100.00;98615.59;5098547;28;20053;-58
2023/12/23 07:48:56;;;;;;;0.30;0.30;;;;;;;8.06;100.00;98613.28;5093683;28;20044;-58
2023/12/23 07:51:23;;;;;;;0.20;0.20;;;;;;;8.04;100.00;98600.22;5092109;28;20050;-58
2023/12/23 07:53:50;;;;;;;0.30;0.30;;;;;;;7.95;100.00;98602.44;5093362;28;20047;-59
2023/12/23 07:56:18;;;;;;;0.30;0.30;;;;;;;7.92;100.00;98602.94;5091856;28;20099;-58
2023/12/23 07:58:45;;;;;;;0.30;0.30;;;;;;;7.93;100.00;98601.06;5099239;28;20044;-58
2023/12/23 08:01:12;;;;;;;0.38;0.38;;;;;;;7.88;100.00;98612.47;5074278;28;20050;-58
2023/12/23 08:03:39;;;;;;;0.25;0.25;;;;;;;7.78;100.00;98607.75;5093282;28;20481;-58
2023/12/23 08:06:08;;;;;;;0.30;0.30;;;;;;;7.87;100.00;98604.72;5095155;28;20051;-59
2023/12/23 08:08:35;;;;;;;0.30;0.30;;;;;;;7.92;100.00;98610.13;5097217;28;20039;-58
2023/12/23 08:11:02;;;;;;;0.20;0.20;;;;;;;7.92;100.00;98610.94;5092179;28;20047;-59
2023/12/23 08:13:29;;;;;;;0.22;0.22;;;;;;;7.87;100.00;98620.72;5095210;28;20123;-58
2023/12/23 08:15:56;;;;;;;0.30;0.30;;;;;;;7.89;100.00;98624.78;5090475;28;20050;-58
2023/12/23 08:18:23;;;;;;;0.30;0.30;;;;;;;7.87;100.00;98616.19;5091035;28;20048;-58
2023/12/23 08:20:50;;;;;;;0.22;0.22;;;;;;;7.80;100.00;98610.19;5093894;28;20150;-59
2023/12/23 08:23:18;;;;;;;0.20;0.20;;;;;;;7.91;100.00;98625.34;5091993;28;20052;-58
2023/12/23 08:25:47;;;;;;;0.30;0.30;;;;;;;7.82;100.00;98623.31;5094594;28;20047;-58
2023/12/23 08:28:14;;;;;;;0.28;0.28;;;;;;;7.84;100.00;98634.50;5090459;28;20052;-59
2023/12/23 08:30:41;;;;;;;0.22;0.22;;;;;;;7.88;100.00;98627.66;5091427;28;20515;-59
2023/12/23 08:33:08;;;;;;;0.20;0.20;;;;;;;7.94;100.00;98632.88;5086227;28;20040;-58
2023/12/23 08:35:35;;;;;;;0.20;0.20;;;;;;;7.94;100.00;98632.06;5098261;28;20043;-59
2023/12/23 08:38:04;;;;;;;0.20;0.20;;;;;;;7.94;100.00;98640.88;5088491;28;20109;-59
2023/12/23 08:40:32;;;;;;;0.30;0.30;;;;;;;7.86;100.00;98635.94;5097658;28;20779;-59
2023/12/23 08:42:59;;;;;;;0.20;0.20;;;;;;;7.97;100.00;98632.38;5095550;28;20270;-59
2023/12/23 08:45:26;;;;;;;0.20;0.20;;;;;;;7.94;100.00;98616.06;5096654;28;20131;-59
2023/12/23 08:47:53;;;;;;;0.20;0.20;;;;;;;7.91;100.00;98622.69;5093128;28;20077;-59
2023/12/23 08:50:22;;;;;;;0.30;0.30;;;;;;;7.95;100.00;98628.34;5094287;28;20969;-59
2023/12/23 08:52:49;;;;;;;0.30;0.30;;;;;;;7.97;100.00;98632.38;5071836;28;20488;-58
2023/12/23 08:55:16;;;;;;;0.30;0.30;;;;;;;7.97;100.00;98637.72;5088542;28;20493;-58
2023/12/23 08:57:45;;;;;;;0.30;0.30;;;;;;;7.98;100.00;98615.31;5095064;28;20039;-58
2023/12/23 09:00:13;;;;;;;0.20;0.20;;;;;;;8.07;100.00;98625.59;5093100;28;20132;-58
2023/12/23 09:02:40;;;;;;;0.22;0.22;;;;;;;8.12;100.00;98623.81;5093222;28;20063;-58
2023/12/23 09:05:07;;;;;;;0.30;0.30;;;;;;;8.12;100.00;98623.03;5072418;28;20071;-58
2023/12/23 09:07:36;;;;;;;0.25;0.25;;;;;;;8.10;100.00;98614.44;5083921;28;20422;-58
2023/12/23 09:10:04;;;;;;;0.17;0.17;;;;;;;8.09;100.00;98618.97;5091559;28;20449;-58
2023/12/23 09:12:33;;;;;;;0.30;0.30;;;;;;;8.09;100.00;98618.19;5088781;28;20044;-58
2023/12/23 09:15:05;;;;;;;0.30;0.30;;;;;;;8.19;100.00;98615.69;5087759;28;20059;-58
2023/12/23 09:17:32;;;;;;;0.30;0.30;;;;;;;8.18;100.00;98617.50;5075220;28;20088;-58
2023/12/23 09:19:59;;;;;;;0.40;0.40;;;;;;;8.28;100.00;98632.88;5092323;28;20408;-58
2023/12/23 09:22:26;;;;;;;0.30;0.30;;;;;;;8.21;100.00;98634.91;5069408;28;20044;-58
2023/12/23 09:24:53;;;;;;;0.22;0.22;;;;;;;8.22;100.00;98633.88;5086490;28;20048;-58
2023/12/23 09:27:21;;;;;;;0.30;0.30;;;;;;;8.22;100.00;98631.19;5087519;28;20052;-58
2023/12/23 09:29:48;;;;;;;0.30;0.30;;;;;;;8.32;100.00;98626.03;5095427;28;20536;-58
2023/12/23 09:32:17;;;;;;;0.30;0.30;;;;;;;8.36;100.00;98631.69;5090137;28;20047;-58
2023/12/23 09:34:44;;;;;;;0.20;0.20;;;;;;;8.34;100.00;98629.28;5097481;28;20046;-58
2023/12/23 09:37:11;;;;;;;0.20;0.20;;;;;;;8.31;100.00;98640.44;5085434;28;20097;-58
2023/12/23 09:39:38;;;;;;;0.20;0.20;;;;;;;8.38;100.00;98650.94;5073990;28;20146;-58
2023/12/23 09:42:07;;;;;;;0.20;0.20;;;;;;;8.34;100.00;98647.97;5092799;28;20314;-58
2023/12/23 09:44:34;;;;;;;0.20;0.20;;;;;;;8.37;100.00;98652.81;5085696;28;20591;-58
2023/12/23 09:47:02;;;;;;;0.30;0.30;;;;;;;8.31;100.00;98645.78;5088419;28;20044;-58
2023/12/23 09:49:30;;;;;;;0.30;0.30;;;;;;;8.32;100.00;98654.59;5077034;28;20522;-58
2023/12/23 09:51:57;;;;;;;0.20;0.20;;;;;;;8.27;100.00;98651.84;5093873;28;20069;-58
2023/12/23 09:54:24;;;;;;;0.30;0.30;;;;;;;8.26;100.00;98661.69;5075057;28;20139;-58
2023/12/23 09:56:51;;;;;;;0.20;0.20;;;;;;;8.27;100.00;98668.66;5095704;28;20510;-58
2023/12/23 09:59:18;;;;;;;0.20;0.20;;;;;;;8.24;100.00;98666.47;5098429;28;21813;-58
2023/12/23 10:01:47;;;;;;;0.22;0.22;;;;;;;8.32;100.00;98674.09;5092083;28;20391;-58
2023/12/23 10:04:14;;;;;;;0.30;0.30;;;;;;;8.33;100.00;98680.22;5097851;28;20059;-58
2023/12/23 10:06:43;;;;;;;0.25;0.25;;;;;;;8.32;100.00;98684.78;5093626;28;20680;-58
2023/12/23 10:09:10;;;;;;;0.30;0.30;;;;;;;8.21;100.00;98681.13;5096812;28;20555;-58
2023/12/23 10:11:37;;;;;;;0.20;0.20;;;;;;;8.17;100.00;98673.81;5101359;28;20071;-58
2023/12/23 10:14:04;;;;;;;0.30;0.30;;;;;;;8.20;100.00;98678.69;5095626;28;20067;-58
2023/12/23 10:16:31;;;;;;;0.25;0.25;;;;;;;8.20;100.00;98678.69;5081105;28;20047;-58
2023/12/23 10:18:58;;;;;;;0.22;0.22;;;;;;;8.26;100.00;98682.25;5096826;28;20050;-58
2023/12/23 10:21:25;;;;;;;0.20;0.20;;;;;;;8.26;100.00;98679.56;5096891;28;20039;-59
2023/12/23 10:23:53;;;;;;;0.25;0.25;;;;;;;8.34;100.00;98669.31;5077604;28;20076;-60
2023/12/23 10:26:20;;;;;;;0.20;0.20;;;;;;;8.45;100.00;98656.97;5096333;28;20119;-59
2023/12/23 10:28:49;;;;;;;0.20;0.20;;;;;;;8.43;100.00;98670.56;5099844;28;20047;-59
2023/12/23 10:31:17;;;;;;;0.28;0.28;;;;;;;8.47;100.00;98672.75;5097369;28;20758;-58
2023/12/23 10:33:45;;;;;;;0.20;0.20;;;;;;;8.47;100.00;98672.75;5100001;28;20050;-58
2023/12/23 10:36:13;;;;;;;0.30;0.30;;;;;;;8.50;100.00;98672.28;5072111;28;20048;-58
2023/12/23 10:38:42;;;;;;;0.30;0.30;;;;;;;8.44;100.00;98660.72;5091082;28;20165;-58
2023/12/23 10:41:17;;;;;;;0.30;0.30;;;;;;;8.44;100.00;98666.03;5097017;28;20130;-58
2023/12/23 10:43:44;;;;;;;0.20;0.20;;;;;;;8.53;100.00;98671.78;5099123;28;20612;-58
2023/12/23 10:46:11;;;;;;;0.30;0.30;;;;;;;8.44;100.00;98682.06;5093922;28;20044;-58
2023/12/23 10:48:38;;;;;;;0.28;0.28;;;;;;;8.49;100.00;98676.00;5098873;28;20056;-58
2023/12/23 10:51:07;;;;;;;0.20;0.20;;;;;;;8.57;100.00;98678.28;5091318;28;20138;-58
2023/12/23 10:53:34;;;;;;;0.30;0.30;;;;;;;8.58;100.00;98674.53;5075201;28;20410;-58
2023/12/23 10:56:01;;;;;;;0.30;0.30;;;;;;;8.58;100.00;98669.19;5079332;28;20120;-58
2023/12/23 10:58:29;;;;;;;0.20;0.20;;;;;;;8.54;100.00;98670.75;5077847;28;20121;-58
2023/12/23 11:00:56;;;;;;;0.30;0.30;;;;;;;8.54;100.00;98666.22;5078841;28;20419;-58
2023/12/23 11:03:24;;;;;;;0.30;0.30;;;;;;;8.52;100.00;98662.16;5080170;28;20127;-58
2023/12/23 11:05:51;;;;;;;0.30;0.30;;;;;;;8.53;100.00;98664.56;5097082;28;20039;-58
2023/12/23 11:08:19;;;;;;;0.30;0.30;;;;;;;8.60;100.00;98683.94;5090804;28;20051;-58
2023/12/23 11:10:46;;;;;;;0.30;0.30;;;;;;;8.63;100.00;98675.41;5096068;28;20055;-58
2023/12/23 11:13:15;;;;;;;0.30;0.30;;;;;;;8.67;100.00;98673.09;5095749;28;20660;-58
2023/12/23 11:15:43;;;;;;;0.20;0.20;;;;;;;8.62;100.00;98686.38;5071636;28;20051;-57
2023/12/23 11:18:10;;;;;;;0.20;0.20;;;;;;;8.69;100.00;98680.88;5083673;28;20054;-58
2023/12/23 11:20:45;;;;;;;0.13;0.13;;;;;;;8.74;100.00;98694.31;5088047;28;20784;-58
2023/12/23 11:23:31;;;;;;;0.20;0.20;;;;;;;8.72;100.00;98681.19;5095736;28;20141;-58
2023/12/23 11:25:58;;;;;;;0.20;0.20;;;;;;;8.70;100.00;98672.59;5091314;28;20553;-58
2023/12/23 11:28:26;;;;;;;0.20;0.20;;;;;;;8.68;100.00;98669.34;5093798;28;20062;-58
2023/12/23 11:30:57;;;;;;;0.20;0.20;;;;;;;8.77;100.00;98672.44;5097004;28;20130;-58
2023/12/23 11:33:25;;;;;;;0.25;0.25;;;;;;;8.81;100.00;98673.53;5081440;28;20701;-58
2023/12/23 11:35:54;;;;;;;0.20;0.20;;;;;;;8.81;100.00;98671.72;5094872;28;20047;-58